Time;durP1;ratioP1;P1;durP2;ratioP2;P2;SDS_P1;SDS_P2;PMS_P1;PMS_P2;Temp;Humidity;BMP_temperature;BMP_pressure;BME280_temperature;BME280_humidity;BME280_pressure;Samples;Min_cycle;Max_cycle;Signal;HPM_P1;HPM_P2
2023/04/27 00:02:18;;;;;;;2.78;2.10;;;17.20;51.90;;;;;;5066134;28;45259;-68
2023/04/27 00:04:45;;;;;;;3.47;2.03;;;17.10;51.80;;;;;;5066265;28;45132;-68
2023/04/27 00:07:13;;;;;;;2.50;2.08;;;17.10;51.90;;;;;;5065827;28;46486;-68
2023/04/27 00:09:40;;;;;;;2.25;1.98;;;17.10;51.80;;;;;;5065849;28;45340;-68
2023/04/27 00:12:07;;;;;;;3.17;2.35;;;17.10;51.90;;;;;;5066069;28;45253;-68
2023/04/27 00:14:33;;;;;;;2.97;2.10;;;17.10;51.90;;;;;;5066123;28;45376;-68
2023/04/27 00:17:00;;;;;;;3.13;2.20;;;17.10;52.00;;;;;;5065664;28;46369;-68
2023/04/27 00:19:27;;;;;;;2.33;2.10;;;17.00;52.00;;;;;;5065776;28;45182;-68
2023/04/27 00:21:54;;;;;;;3.13;2.10;;;17.10;52.10;;;;;;5065894;28;45198;-68
2023/04/27 00:24:22;;;;;;;2.50;2.30;;;17.00;52.10;;;;;;5065921;28;45277;-68
2023/04/27 00:26:49;;;;;;;2.92;2.47;;;17.00;52.10;;;;;;5065259;28;46361;-68
2023/04/27 00:29:15;;;;;;;2.13;2.00;;;17.00;52.20;;;;;;5065665;28;45199;-68
2023/04/27 00:31:42;;;;;;;2.83;2.33;;;17.00;52.20;;;;;;5068338;28;45222;-68
2023/04/27 00:34:09;;;;;;;2.25;1.85;;;17.00;52.20;;;;;;5069724;28;45412;-68
2023/04/27 00:36:36;;;;;;;2.13;1.88;;;16.90;52.20;;;;;;5069097;28;45601;-68
2023/04/27 00:39:03;;;;;;;2.40;2.20;;;17.00;52.30;;;;;;5069186;28;45305;-68
2023/04/27 00:41:31;;;;;;;3.42;2.20;;;17.00;52.30;;;;;;5069197;28;45279;-68
2023/04/27 00:43:58;;;;;;;2.60;2.20;;;16.90;52.20;;;;;;5069279;28;45355;-68
2023/04/27 00:46:26;;;;;;;2.38;2.17;;;16.90;52.40;;;;;;5069014;28;45283;-68
2023/04/27 00:48:53;;;;;;;2.40;2.13;;;16.90;52.40;;;;;;5068922;28;45362;-68
2023/04/27 00:51:20;;;;;;;2.67;2.20;;;16.90;52.40;;;;;;5069147;28;45237;-68
2023/04/27 00:53:47;;;;;;;2.30;2.10;;;16.90;52.40;;;;;;5069230;28;45315;-68
2023/04/27 00:56:13;;;;;;;2.78;1.88;;;16.90;52.40;;;;;;5068851;28;45429;-68
2023/04/27 00:58:42;;;;;;;2.40;2.10;;;16.80;52.30;;;;;;5068822;28;45381;-68
2023/04/27 01:01:09;;;;;;;2.95;2.40;;;16.90;52.50;;;;;;5069056;28;45214;-68
2023/04/27 01:03:36;;;;;;;2.40;2.00;;;16.80;52.40;;;;;;5069065;28;45211;-68
2023/04/27 01:06:03;;;;;;;2.08;1.88;;;16.80;52.40;;;;;;5068669;28;45301;-68
2023/04/27 01:08:30;;;;;;;2.97;2.10;;;16.80;52.50;;;;;;5068694;28;45297;-68
2023/04/27 01:10:57;;;;;;;1.88;1.73;;;16.80;52.40;;;;;;5068821;28;45447;-68
2023/04/27 01:13:24;;;;;;;2.83;1.90;;;16.80;52.50;;;;;;5068933;28;45318;-68
2023/04/27 01:15:52;;;;;;;2.95;2.33;;;16.70;52.50;;;;;;5068410;28;46643;-68
2023/04/27 01:18:19;;;;;;;2.92;1.90;;;16.70;52.50;;;;;;5068558;28;45295;-68
2023/04/27 01:20:46;;;;;;;2.15;1.95;;;16.70;52.60;;;;;;5068730;28;45364;-68
2023/04/27 01:23:15;;;;;;;1.95;1.80;;;16.70;52.50;;;;;;5068803;28;45373;-68
2023/04/27 01:25:42;;;;;;;2.42;2.20;;;16.70;52.60;;;;;;5068414;28;47050;-68
2023/04/27 01:28:08;;;;;;;3.15;2.00;;;16.70;52.70;;;;;;5068241;28;45184;-68
2023/04/27 01:30:35;;;;;;;2.28;2.08;;;16.70;52.60;;;;;;5068595;28;45238;-68
2023/04/27 01:33:02;;;;;;;4.43;1.80;;;16.70;52.70;;;;;;5068607;28;45543;-68
2023/04/27 01:35:30;;;;;;;2.83;2.33;;;16.70;52.70;;;;;;5068217;28;46685;-68
2023/04/27 01:38:00;;;;;;;2.40;1.92;;;16.70;52.70;;;;;;5068248;28;45229;-68
2023/04/27 01:40:28;;;;;;;1.90;1.80;;;16.60;52.70;;;;;;5060419;28;45350;-68
2023/04/27 01:42:55;;;;;;;2.47;2.08;;;16.60;52.70;;;;;;5068356;28;45227;-68
2023/04/27 01:45:22;;;;;;;2.33;1.95;;;16.60;52.70;;;;;;5067960;28;47001;-68
2023/04/27 01:47:50;;;;;;;2.97;2.08;;;16.60;52.70;;;;;;5068102;28;45198;-68
2023/04/27 01:50:17;;;;;;;2.65;1.90;;;16.60;52.80;;;;;;5068459;28;45254;-68
2023/04/27 01:52:44;;;;;;;2.95;1.90;;;16.50;52.80;;;;;;5068343;28;45233;-68
2023/04/27 01:55:11;;;;;;;1.85;1.75;;;16.60;52.90;;;;;;5067880;28;45435;-68
2023/04/27 01:57:39;;;;;;;2.15;1.73;;;16.60;52.80;;;;;;5067949;28;45255;-68
2023/04/27 02:00:08;;;;;;;2.28;1.92;;;16.50;52.80;;;;;;5068103;28;45322;-68
2023/04/27 02:02:35;;;;;;;1.80;1.67;;;16.50;52.80;;;;;;5068141;28;45515;-68
2023/04/27 02:05:02;;;;;;;2.22;1.98;;;16.50;52.90;;;;;;5067686;28;47664;-68
2023/04/27 02:07:29;;;;;;;3.53;1.90;;;16.50;52.90;;;;;;5067801;28;45248;-68
2023/04/27 02:09:56;;;;;;;2.08;1.65;;;16.50;53.00;;;;;;5067935;28;45375;-69
2023/04/27 02:12:22;;;;;;;2.28;1.95;;;16.40;52.90;;;;;;5068022;28;45284;-68
2023/04/27 02:14:50;;;;;;;2.05;1.88;;;16.40;53.00;;;;;;5067764;28;47259;-68
2023/04/27 02:17:17;;;;;;;2.22;1.80;;;16.40;53.10;;;;;;5067706;28;45187;-68
2023/04/27 02:19:44;;;;;;;2.20;2.00;;;16.40;53.00;;;;;;5067810;28;45321;-68
2023/04/27 02:22:11;;;;;;;2.00;1.88;;;16.40;53.10;;;;;;5067861;28;45224;-68
2023/04/27 02:24:38;;;;;;;2.33;1.88;;;16.30;53.10;;;;;;5067434;28;46913;-68
2023/04/27 02:27:05;;;;;;;1.60;1.50;;;16.30;53.20;;;;;;5067108;28;45289;-68
2023/04/27 02:29:32;;;;;;;2.10;1.90;;;16.30;53.40;;;;;;5067550;28;45328;-68
2023/04/27 02:32:00;;;;;;;2.13;1.73;;;16.30;53.30;;;;;;5067733;28;45397;-69
2023/04/27 02:34:27;;;;;;;2.20;2.00;;;16.30;53.20;;;;;;5067329;28;46559;-68
2023/04/27 02:36:53;;;;;;;2.08;1.88;;;16.30;53.30;;;;;;5067299;28;45250;-68
2023/04/27 02:39:20;;;;;;;2.25;1.50;;;16.30;53.30;;;;;;5067386;28;45238;-68
2023/04/27 02:41:47;;;;;;;1.58;1.42;;;16.30;53.20;;;;;;5067739;28;45326;-68
2023/04/27 02:44:14;;;;;;;2.70;1.70;;;16.30;53.40;;;;;;5067021;28;46381;-68
2023/04/27 02:46:40;;;;;;;1.80;1.70;;;16.30;53.30;;;;;;5067295;28;45207;-68
2023/04/27 02:49:09;;;;;;;2.40;1.80;;;16.30;53.40;;;;;;5067307;28;45290;-68
2023/04/27 02:51:35;;;;;;;1.75;1.65;;;16.30;53.40;;;;;;5067410;28;45406;-68
2023/04/27 02:54:02;;;;;;;2.10;1.90;;;16.20;53.30;;;;;;5066326;28;45312;-68
2023/04/27 02:56:29;;;;;;;1.63;1.52;;;16.20;53.40;;;;;;5066946;28;45272;-68
2023/04/27 02:58:56;;;;;;;2.53;1.90;;;16.20;53.30;;;;;;5067184;28;45351;-68
2023/04/27 03:01:23;;;;;;;2.55;1.48;;;16.20;53.40;;;;;;5067268;28;45412;-68
2023/04/27 03:03:49;;;;;;;1.85;1.75;;;16.20;53.50;;;;;;5066813;28;45280;-68
2023/04/27 03:06:18;;;;;;;1.60;1.50;;;16.20;53.40;;;;;;5066978;28;45252;-68
2023/04/27 03:08:44;;;;;;;2.10;1.80;;;16.20;53.30;;;;;;5066963;28;45224;-68
2023/04/27 03:11:11;;;;;;;2.22;1.67;;;16.20;53.40;;;;;;5067153;28;45433;-68
2023/04/27 03:13:41;;;;;;;1.85;1.70;;;16.20;53.50;;;;;;5066731;28;46348;-68
2023/04/27 03:16:09;;;;;;;2.05;1.85;;;16.20;53.40;;;;;;5066725;28;45263;-68
2023/04/27 03:18:36;;;;;;;1.60;1.50;;;16.10;53.50;;;;;;5066786;28;45247;-68
2023/04/27 03:21:07;;;;;;;2.13;1.63;;;16.10;53.60;;;;;;5066958;28;45282;-68
2023/04/27 03:23:35;;;;;;;1.80;1.38;;;16.10;53.50;;;;;;5066579;28;45237;-68
2023/04/27 03:26:06;;;;;;;1.50;1.40;;;16.10;53.50;;;;;;5066287;28;45339;-68
2023/04/27 03:28:32;;;;;;;1.92;1.80;;;16.10;53.60;;;;;;5066672;28;45205;-69
2023/04/27 03:30:59;;;;;;;2.55;1.60;;;16.10;53.50;;;;;;5066820;28;45327;-68
2023/04/27 03:33:27;;;;;;;2.25;1.77;;;16.10;53.60;;;;;;5066484;28;45466;-68
2023/04/27 03:35:57;;;;;;;1.90;1.70;;;16.10;53.50;;;;;;5066382;28;45367;-68
2023/04/27 03:38:24;;;;;;;2.15;1.70;;;16.10;53.60;;;;;;5066452;28;45206;-68
2023/04/27 03:40:52;;;;;;;2.20;1.63;;;16.10;53.60;;;;;;5066751;28;45214;-68
2023/04/27 03:43:19;;;;;;;1.70;1.60;;;16.10;53.70;;;;;;5066221;28;45234;-68
2023/04/27 03:45:46;;;;;;;1.92;1.65;;;16.10;53.70;;;;;;5066131;28;45401;-68
2023/04/27 03:48:13;;;;;;;1.70;1.60;;;16.00;53.60;;;;;;5066420;28;45170;-68
2023/04/27 03:50:41;;;;;;;1.77;1.67;;;16.00;53.70;;;;;;5066531;28;45452;-68
2023/04/27 03:53:07;;;;;;;1.88;1.77;;;16.00;53.70;;;;;;5066109;28;45468;-68
2023/04/27 03:55:34;;;;;;;1.73;1.63;;;16.00;53.80;;;;;;5063528;28;45403;-68
2023/04/27 03:58:03;;;;;;;1.88;1.70;;;16.00;53.80;;;;;;5066068;28;45377;-68
2023/04/27 04:00:30;;;;;;;1.60;1.50;;;15.90;53.70;;;;;;5066531;28;45195;-68
2023/04/27 04:02:57;;;;;;;1.90;1.50;;;16.00;53.80;;;;;;5066139;28;47572;-68
2023/04/27 04:05:23;;;;;;;1.65;1.40;;;15.90;53.70;;;;;;5064865;28;45241;-69
2023/04/27 04:07:50;;;;;;;2.67;1.73;;;16.00;53.80;;;;;;5066125;28;45300;-68
2023/04/27 04:10:17;;;;;;;1.73;1.63;;;15.90;53.80;;;;;;5066305;28;45340;-68
2023/04/27 04:12:44;;;;;;;1.70;1.60;;;15.90;53.80;;;;;;5065798;28;45294;-68
2023/04/27 04:15:12;;;;;;;1.75;1.60;;;16.00;53.90;;;;;;5066086;28;45260;-68
2023/04/27 04:17:39;;;;;;;1.60;1.50;;;16.00;53.80;;;;;;5066012;28;45183;-68
2023/04/27 04:20:09;;;;;;;1.77;1.63;;;15.90;53.70;;;;;;5066135;28;45482;-68
2023/04/27 04:22:36;;;;;;;2.92;1.60;;;16.00;53.80;;;;;;5065595;28;48617;-67
2023/04/27 04:25:03;;;;;;;2.55;1.73;;;15.90;53.90;;;;;;5065640;28;45512;-68
2023/04/27 04:27:31;;;;;;;1.85;1.75;;;15.90;53.90;;;;;;5065523;28;45335;-68
2023/04/27 04:29:59;;;;;;;1.88;1.55;;;15.90;53.80;;;;;;5066150;28;45507;-68
2023/04/27 04:32:30;;;;;;;1.73;1.63;;;15.90;53.80;;;;;;5065466;28;45216;-67
2023/04/27 04:34:56;;;;;;;1.90;1.80;;;15.90;53.90;;;;;;5065586;28;45464;-67
2023/04/27 04:37:23;;;;;;;2.00;1.42;;;15.90;53.90;;;;;;5065655;28;45257;-67
2023/04/27 04:39:50;;;;;;;2.35;1.60;;;15.90;53.90;;;;;;5065858;28;45384;-67
2023/04/27 04:42:17;;;;;;;2.00;1.83;;;15.90;54.00;;;;;;5065693;28;46298;-67
2023/04/27 04:44:44;;;;;;;1.70;1.60;;;15.90;54.00;;;;;;5065448;28;45253;-68
2023/04/27 04:47:11;;;;;;;1.50;1.40;;;15.90;53.90;;;;;;5065609;28;45367;-68
2023/04/27 04:49:39;;;;;;;2.13;1.60;;;15.90;54.10;;;;;;5065826;28;45201;-68
2023/04/27 04:52:06;;;;;;;1.90;1.80;;;15.90;54.00;;;;;;5065263;28;45314;-68
2023/04/27 04:54:32;;;;;;;1.30;1.20;;;15.90;54.00;;;;;;5065240;28;46681;-68
2023/04/27 04:56:59;;;;;;;1.50;1.40;;;15.90;54.00;;;;;;5065431;28;45209;-68
2023/04/27 04:59:26;;;;;;;1.55;1.45;;;15.90;53.90;;;;;;5065786;28;45396;-68
2023/04/27 05:01:54;;;;;;;1.60;1.50;;;15.90;53.90;;;;;;5065237;28;45688;-67
2023/04/27 05:04:21;;;;;;;2.00;1.30;;;15.90;53.90;;;;;;5065430;28;45304;-67
2023/04/27 05:06:49;;;;;;;1.60;1.50;;;15.90;53.90;;;;;;5065543;28;45402;-67
2023/04/27 05:09:16;;;;;;;1.80;1.70;;;15.90;53.80;;;;;;5065437;28;45476;-67
2023/04/27 05:11:43;;;;;;;1.73;1.63;;;15.90;53.70;;;;;;5065121;28;45254;-67
2023/04/27 05:14:09;;;;;;;1.85;1.63;;;15.90;53.80;;;;;;5065196;28;45205;-67
2023/04/27 05:16:36;;;;;;;2.47;1.63;;;15.90;53.70;;;;;;5066072;28;45249;-68
2023/04/27 05:19:04;;;;;;;1.70;1.60;;;15.90;53.70;;;;;;5068913;28;45327;-68
2023/04/27 05:21:32;;;;;;;1.40;1.30;;;15.90;53.80;;;;;;5068669;28;48110;-68
2023/04/27 05:24:00;;;;;;;1.42;1.33;;;15.90;53.80;;;;;;5068610;28;45151;-68
2023/04/27 05:26:27;;;;;;;3.28;1.40;;;15.90;53.80;;;;;;5068718;28;45327;-68
2023/04/27 05:28:54;;;;;;;1.77;1.67;;;15.90;53.90;;;;;;5068803;28;45499;-68
2023/04/27 05:31:21;;;;;;;1.40;1.30;;;15.90;53.80;;;;;;5068434;28;45426;-67
2023/04/27 05:33:48;;;;;;;1.77;1.67;;;15.90;53.70;;;;;;5068516;28;45225;-67
2023/04/27 05:36:14;;;;;;;2.45;1.50;;;15.90;53.70;;;;;;5068583;28;45160;-68
2023/04/27 05:38:42;;;;;;;1.98;1.40;;;15.90;53.70;;;;;;5068646;28;45183;-68
2023/04/27 05:41:10;;;;;;;1.48;1.38;;;15.90;53.70;;;;;;5068236;28;47382;-67
2023/04/27 05:43:37;;;;;;;1.75;1.45;;;15.90;53.70;;;;;;5068203;28;45351;-68
2023/04/27 05:46:04;;;;;;;1.42;1.33;;;15.90;53.70;;;;;;5068338;28;45251;-68
2023/04/27 05:48:31;;;;;;;1.60;1.38;;;15.90;53.70;;;;;;5068497;28;45485;-68
2023/04/27 05:51:01;;;;;;;2.10;1.67;;;15.90;53.60;;;;;;5068054;28;46421;-68
2023/04/27 05:53:28;;;;;;;1.60;1.50;;;15.90;53.60;;;;;;5068104;28;45215;-68
2023/04/27 05:55:55;;;;;;;1.58;1.48;;;15.90;53.70;;;;;;5068430;28;45323;-68
2023/04/27 05:58:23;;;;;;;1.20;1.20;;;15.90;53.60;;;;;;5068414;28;45241;-68
2023/04/27 06:00:51;;;;;;;2.05;1.70;;;15.90;53.60;;;;;;5067915;28;45234;-68
2023/04/27 06:03:18;;;;;;;1.67;1.58;;;16.00;53.80;;;;;;5068013;28;45443;-68
2023/04/27 06:05:44;;;;;;;1.40;1.30;;;16.00;53.70;;;;;;5068087;28;45251;-68
2023/04/27 06:08:12;;;;;;;1.20;1.20;;;16.00;53.70;;;;;;5068214;28;45242;-68
2023/04/27 06:10:39;;;;;;;1.70;1.60;;;16.00;53.70;;;;;;5067770;28;46525;-68
2023/04/27 06:13:06;;;;;;;1.25;1.20;;;16.00;53.70;;;;;;5067816;28;45348;-68
2023/04/27 06:15:34;;;;;;;1.95;1.55;;;16.00;53.70;;;;;;5067880;28;45449;-68
2023/04/27 06:18:01;;;;;;;1.60;1.50;;;16.00;53.70;;;;;;5068085;28;45289;-68
2023/04/27 06:20:28;;;;;;;1.55;1.45;;;16.00;53.70;;;;;;5067518;28;46796;-68
2023/04/27 06:22:55;;;;;;;2.03;1.40;;;16.00;53.70;;;;;;5067695;28;45334;-68
2023/04/27 06:25:22;;;;;;;1.70;1.58;;;16.00;53.70;;;;;;5067719;28;45366;-68
2023/04/27 06:27:49;;;;;;;2.15;1.40;;;16.00;53.70;;;;;;5066806;28;45388;-68
2023/04/27 06:30:16;;;;;;;2.17;1.63;;;16.00;53.70;;;;;;5067311;28;47637;-68
2023/04/27 06:32:45;;;;;;;1.95;1.70;;;16.00;53.70;;;;;;5067518;28;45329;-68
2023/04/27 06:35:12;;;;;;;1.75;1.40;;;16.00;53.60;;;;;;5067912;28;45348;-68
2023/04/27 06:37:39;;;;;;;2.00;1.60;;;16.00;53.60;;;;;;5067631;28;45268;-68
2023/04/27 06:40:06;;;;;;;2.25;1.75;;;16.00;53.60;;;;;;5067326;28;47274;-68
2023/04/27 06:42:33;;;;;;;1.60;1.50;;;16.00;53.60;;;;;;5067290;28;45319;-68
2023/04/27 06:45:00;;;;;;;1.92;1.50;;;16.00;53.60;;;;;;5067421;28;45493;-68
2023/04/27 06:47:27;;;;;;;1.73;1.60;;;16.00;53.60;;;;;;5067574;28;45296;-68
2023/04/27 06:49:55;;;;;;;3.38;1.67;;;16.00;53.60;;;;;;5067203;28;46391;-68
2023/04/27 06:52:22;;;;;;;1.67;1.58;;;16.10;53.60;;;;;;5067285;28;45348;-68
2023/04/27 06:54:49;;;;;;;3.00;1.60;;;16.10;53.60;;;;;;5067349;28;45298;-68
2023/04/27 06:57:16;;;;;;;1.75;1.65;;;16.10;53.60;;;;;;5067420;28;45454;-68
2023/04/27 06:59:42;;;;;;;1.40;1.30;;;16.10;53.50;;;;;;5067123;28;45493;-68
2023/04/27 07:02:09;;;;;;;1.60;1.50;;;16.10;53.50;;;;;;5064492;28;45328;-68
2023/04/27 07:04:36;;;;;;;2.25;1.27;;;16.10;53.50;;;;;;5067189;28;45201;-68
2023/04/27 07:07:05;;;;;;;2.08;1.50;;;16.20;53.50;;;;;;5067243;28;45289;-68
2023/04/27 07:09:32;;;;;;;2.08;1.65;;;16.20;53.40;;;;;;5066960;28;47744;-68
2023/04/27 07:12:00;;;;;;;1.75;1.50;;;16.20;53.40;;;;;;5066810;28;45367;-68
2023/04/27 07:14:26;;;;;;;2.67;1.60;;;16.20;53.40;;;;;;5067036;28;45208;-68
2023/04/27 07:16:53;;;;;;;1.52;1.40;;;16.20;53.40;;;;;;5067207;28;45251;-68
2023/04/27 07:19:20;;;;;;;1.77;1.65;;;16.20;53.30;;;;;;5066816;28;45403;-68
2023/04/27 07:21:47;;;;;;;1.63;1.50;;;16.20;53.30;;;;;;5066774;28;45238;-68
2023/04/27 07:24:15;;;;;;;2.22;1.73;;;16.30;53.30;;;;;;5066876;28;45360;-69
2023/04/27 07:26:42;;;;;;;1.30;1.20;;;16.30;53.20;;;;;;5066714;28;45230;-69
2023/04/27 07:29:09;;;;;;;1.50;1.40;;;16.30;53.20;;;;;;5066528;28;45182;-68
2023/04/27 07:31:36;;;;;;;1.65;1.55;;;16.30;53.10;;;;;;5066552;28;45352;-68
2023/04/27 07:34:03;;;;;;;1.98;1.40;;;16.30;53.10;;;;;;5066709;28;45359;-68
2023/04/27 07:36:30;;;;;;;1.42;1.33;;;16.30;53.00;;;;;;5066643;28;45329;-68
2023/04/27 07:38:57;;;;;;;2.05;1.60;;;16.40;53.60;;;;;;5066234;28;46612;-68
2023/04/27 07:41:26;;;;;;;2.33;1.73;;;16.40;53.00;;;;;;5049700;28;45467;-68
2023/04/27 07:43:53;;;;;;;1.60;1.50;;;16.40;52.90;;;;;;5066624;28;45299;-69
2023/04/27 07:46:20;;;;;;;2.35;1.58;;;16.40;53.00;;;;;;5066610;28;45496;-68
2023/04/27 07:48:49;;;;;;;2.08;1.40;;;16.40;53.00;;;;;;5066307;28;45900;-68
2023/04/27 07:51:16;;;;;;;3.85;1.65;;;16.50;53.00;;;;;;5066385;28;45271;-68
2023/04/27 07:53:43;;;;;;;1.88;1.50;;;16.50;52.90;;;;;;5066272;28;45511;-68
2023/04/27 07:56:10;;;;;;;4.47;1.50;;;16.50;53.00;;;;;;5066462;28;45404;-69
2023/04/27 07:58:38;;;;;;;1.48;1.30;;;16.60;53.00;;;;;;5065924;28;45299;-67
2023/04/27 08:01:05;;;;;;;1.48;1.38;;;16.60;52.90;;;;;;5066097;28;45274;-68
2023/04/27 08:03:32;;;;;;;2.25;1.60;;;16.60;52.90;;;;;;5066257;28;45419;-68
2023/04/27 08:05:59;;;;;;;2.80;1.42;;;16.60;53.50;;;;;;5066333;28;45297;-68
2023/04/27 08:08:26;;;;;;;1.88;1.40;;;16.70;53.00;;;;;;5056986;28;47903;-67
2023/04/27 08:10:53;;;;;;;1.60;1.50;;;16.70;53.00;;;;;;5066029;28;45244;-68
2023/04/27 08:13:20;;;;;;;3.58;1.60;;;16.70;52.90;;;;;;5066210;28;45194;-68
2023/04/27 08:15:48;;;;;;;1.83;1.52;;;16.70;52.90;;;;;;5066209;28;45448;-68
2023/04/27 08:18:16;;;;;;;1.63;1.33;;;16.70;52.90;;;;;;5065926;28;45254;-68
2023/04/27 08:20:43;;;;;;;2.60;1.65;;;16.80;52.90;;;;;;5065791;28;45300;-68
2023/04/27 08:23:10;;;;;;;2.00;1.80;;;16.80;52.90;;;;;;5066228;28;45264;-68
2023/04/27 08:25:37;;;;;;;3.28;1.55;;;16.80;52.90;;;;;;5065922;28;45385;-68
2023/04/27 08:28:04;;;;;;;2.28;1.30;;;16.80;52.70;;;;;;5065670;28;47358;-68
2023/04/27 08:30:31;;;;;;;1.50;1.40;;;16.90;52.80;;;;;;5065861;28;45532;-68
2023/04/27 08:32:59;;;;;;;3.85;1.90;;;16.90;52.80;;;;;;5065849;28;45213;-68
2023/04/27 08:35:26;;;;;;;2.53;1.50;;;16.90;52.70;;;;;;5065970;28;45181;-68
2023/04/27 08:37:53;;;;;;;2.10;1.50;;;16.90;52.70;;;;;;5065611;28;45485;-68
2023/04/27 08:40:20;;;;;;;2.17;1.65;;;17.00;52.70;;;;;;5065639;28;45285;-68
2023/04/27 08:42:54;;;;;;;1.45;1.33;;;17.00;52.70;;;;;;5065800;28;45210;-68
2023/04/27 08:45:22;;;;;;;1.73;1.63;;;17.00;52.70;;;;;;5065815;28;45199;-67
2023/04/27 08:47:49;;;;;;;3.08;1.60;;;17.00;52.60;;;;;;5065378;28;47418;-68
2023/04/27 08:50:17;;;;;;;1.95;1.60;;;17.10;52.70;;;;;;5065462;28;45321;-68
2023/04/27 08:52:45;;;;;;;2.22;2.03;;;17.10;52.70;;;;;;5068279;28;45367;-68
2023/04/27 08:55:11;;;;;;;2.45;1.63;;;17.10;52.60;;;;;;5069403;28;45404;-68
2023/04/27 08:57:38;;;;;;;1.70;1.40;;;17.10;52.70;;;;;;5068897;28;45484;-68
2023/04/27 09:00:12;;;;;;;1.95;1.30;;;17.20;52.70;;;;;;5069006;28;45195;-68
2023/04/27 09:02:45;;;;;;;6.03;2.10;;;17.20;52.60;;;;;;5069022;28;45262;-68
2023/04/27 09:05:17;;;;;;;2.38;1.52;;;17.20;52.60;;;;;;5069188;28;45254;-68
2023/04/27 09:07:55;;;;;;;3.53;1.60;;;17.20;52.70;;;;;;5068656;28;46962;-68
2023/04/27 09:10:22;;;;;;;1.80;1.50;;;17.20;52.60;;;;;;5068792;28;45162;-68
2023/04/27 09:12:55;;;;;;;1.60;1.50;;;17.30;52.60;;;;;;5069036;28;45199;-68
2023/04/27 09:15:22;;;;;;;1.98;1.88;;;17.30;52.60;;;;;;5069180;28;45237;-68
2023/04/27 09:17:54;;;;;;;2.20;1.50;;;17.30;52.50;;;;;;5068552;28;46391;-68
2023/04/27 09:20:22;;;;;;;2.55;1.50;;;17.30;52.50;;;;;;5068848;28;45323;-68
2023/04/27 09:22:51;;;;;;;1.80;1.70;;;17.40;52.60;;;;;;5068819;28;45204;-67
2023/04/27 09:25:25;;;;;;;3.00;1.73;;;17.40;52.60;;;;;;5068899;28;45234;-68
2023/04/27 09:27:52;;;;;;;2.88;1.60;;;17.40;52.60;;;;;;5068049;28;45707;-68
2023/04/27 09:30:20;;;;;;;1.88;1.58;;;17.50;52.50;;;;;;5068634;28;45341;-68
2023/04/27 09:32:52;;;;;;;2.55;1.65;;;17.50;52.40;;;;;;5068535;28;45449;-68
2023/04/27 09:35:22;;;;;;;3.30;1.60;;;17.50;52.40;;;;;;5068588;28;45381;-68
2023/04/27 09:37:50;;;;;;;1.75;1.40;;;17.50;52.30;;;;;;5068338;28;46496;-67
2023/04/27 09:40:18;;;;;;;2.67;1.48;;;17.60;52.40;;;;;;5068322;28;45380;-68
2023/04/27 09:42:45;;;;;;;1.83;1.67;;;17.60;52.20;;;;;;5068406;28;45262;-67
2023/04/27 09:45:12;;;;;;;1.70;1.60;;;17.60;52.20;;;;;;5068507;28;45463;-67
2023/04/27 09:47:38;;;;;;;3.20;1.60;;;17.70;52.30;;;;;;5068023;28;46670;-67
2023/04/27 09:50:07;;;;;;;1.73;1.50;;;17.70;52.40;;;;;;5068211;28;45231;-68
2023/04/27 09:52:35;;;;;;;1.70;1.52;;;17.70;52.50;;;;;;5068220;28;45372;-67
2023/04/27 09:55:02;;;;;;;1.85;1.70;;;17.80;52.20;;;;;;5068340;28;45401;-68
2023/04/27 09:57:40;;;;;;;1.83;1.55;;;17.80;52.20;;;;;;5067931;28;46762;-68
2023/04/27 10:00:15;;;;;;;2.08;1.65;;;17.90;52.10;;;;;;5068003;28;45318;-68
2023/04/27 10:02:45;;;;;;;1.70;1.60;;;17.90;52.20;;;;;;5067094;28;45347;-68
2023/04/27 10:05:45;;;;;;;2.47;1.48;;;17.90;52.10;;;;;;5067881;28;45638;-68
2023/04/27 10:08:13;;;;;;;2.00;1.42;;;18.00;52.10;;;;;;5056070;28;46404;-68
2023/04/27 10:10:44;;;;;;;1.77;1.60;;;18.00;52.00;;;;;;5068051;28;45292;-67
2023/04/27 10:13:20;;;;;;;1.55;1.45;;;18.10;52.00;;;;;;5067566;28;45277;-68
2023/04/27 10:15:47;;;;;;;1.50;1.40;;;18.10;51.90;;;;;;5068157;28;45238;-68
2023/04/27 10:18:15;;;;;;;1.60;1.50;;;18.20;51.90;;;;;;5067581;28;45333;-68
2023/04/27 10:20:42;;;;;;;1.77;1.67;;;18.20;51.90;;;;;;5066190;28;45303;-67
2023/04/27 10:23:08;;;;;;;1.70;1.50;;;18.20;51.90;;;;;;5067835;28;45198;-68
2023/04/27 10:25:40;;;;;;;1.52;1.42;;;18.30;51.90;;;;;;5067899;28;45121;-68
2023/04/27 10:28:06;;;;;;;1.70;1.60;;;18.30;51.90;;;;;;5067049;28;45470;-68
2023/04/27 10:30:35;;;;;;;3.33;1.90;;;18.40;51.90;;;;;;5067507;28;45240;-68
2023/04/27 10:33:04;;;;;;;2.15;1.75;;;18.40;51.90;;;;;;5067576;28;45269;-68
2023/04/27 10:35:34;;;;;;;2.60;1.90;;;18.40;52.30;;;;;;5067641;28;45416;-67
2023/04/27 10:38:08;;;;;;;1.85;1.65;;;18.50;51.70;;;;;;5067351;28;46457;-67
2023/04/27 10:40:35;;;;;;;1.70;1.60;;;18.50;51.90;;;;;;5067262;28;45205;-67
2023/04/27 10:43:09;;;;;;;3.05;1.90;;;18.50;52.00;;;;;;5067503;28;45205;-67
2023/04/27 10:45:36;;;;;;;8.50;1.88;;;18.50;52.30;;;;;;5067548;28;45221;-66
2023/04/27 10:48:04;;;;;;;2.60;1.75;;;18.60;51.70;;;;;;5067022;28;46329;-66
2023/04/27 10:50:31;;;;;;;4.20;1.95;;;18.60;51.80;;;;;;5067066;28;45283;-66
2023/04/27 10:53:00;;;;;;;4.25;1.98;;;18.60;51.80;;;;;;5067246;28;45234;-66
2023/04/27 10:55:27;;;;;;;2.40;1.90;;;18.70;51.80;;;;;;5067454;28;45201;-67
2023/04/27 10:57:54;;;;;;;3.72;2.30;;;18.70;51.70;;;;;;5066850;28;45408;-67
2023/04/27 11:00:27;;;;;;;2.35;1.88;;;18.80;51.90;;;;;;5067090;28;45438;-67
2023/04/27 11:02:54;;;;;;;2.70;2.08;;;18.80;51.80;;;;;;5067081;28;45291;-67
2023/04/27 11:05:22;;;;;;;3.08;1.95;;;18.90;51.70;;;;;;5067210;28;45205;-67
2023/04/27 11:07:49;;;;;;;2.85;2.20;;;19.00;51.60;;;;;;5066688;28;46356;-67
2023/04/27 11:10:16;;;;;;;5.30;2.42;;;19.00;51.50;;;;;;5066734;28;45305;-67
2023/04/27 11:12:43;;;;;;;3.58;2.30;;;19.10;51.40;;;;;;5066934;28;45231;-67
2023/04/27 11:15:11;;;;;;;4.18;2.28;;;19.20;51.30;;;;;;5066376;28;45296;-67
2023/04/27 11:17:39;;;;;;;4.85;2.25;;;19.20;51.20;;;;;;5066614;28;45728;-67
2023/04/27 11:20:08;;;;;;;3.33;2.35;;;19.30;51.10;;;;;;5066655;28;45264;-67
2023/04/27 11:22:43;;;;;;;2.20;2.00;;;19.40;51.10;;;;;;5066828;28;45293;-68
2023/04/27 11:25:10;;;;;;;2.38;2.17;;;19.50;51.00;;;;;;5066765;28;45229;-68
2023/04/27 11:27:37;;;;;;;2.10;1.70;;;19.50;51.00;;;;;;5065988;28;46836;-67
2023/04/27 11:30:06;;;;;;;4.50;2.25;;;19.60;51.00;;;;;;5066442;28;45318;-67
2023/04/27 11:32:33;;;;;;;2.90;2.17;;;19.60;50.90;;;;;;5066668;28;45207;-69
2023/04/27 11:35:01;;;;;;;2.17;1.98;;;19.60;51.00;;;;;;5066633;28;45470;-68
2023/04/27 11:37:28;;;;;;;2.50;1.95;;;19.60;51.10;;;;;;5066203;28;46777;-68
2023/04/27 11:39:56;;;;;;;3.47;2.03;;;19.50;51.10;;;;;;5066362;28;45187;-68
2023/04/27 11:42:23;;;;;;;3.47;2.08;;;19.60;51.10;;;;;;5066491;28;45205;-68
2023/04/27 11:44:53;;;;;;;2.67;1.95;;;19.70;51.00;;;;;;5066550;28;45322;-68
2023/04/27 11:47:21;;;;;;;4.03;2.35;;;19.80;50.80;;;;;;5066087;28;46594;-69
2023/04/27 11:49:48;;;;;;;2.28;1.90;;;19.90;50.60;;;;;;5066308;28;45280;-68
2023/04/27 11:52:16;;;;;;;2.08;1.70;;;20.00;50.50;;;;;;5066235;28;45242;-67
2023/04/27 11:54:49;;;;;;;1.88;1.75;;;20.10;50.60;;;;;;5066498;28;45585;-68
2023/04/27 11:57:16;;;;;;;2.28;2.05;;;20.10;50.20;;;;;;5066002;28;47608;-69
2023/04/27 11:59:43;;;;;;;2.15;1.58;;;20.20;50.10;;;;;;5066114;28;45326;-67
2023/04/27 12:02:10;;;;;;;2.00;1.80;;;20.30;50.10;;;;;;5066218;28;45190;-68
2023/04/27 12:04:37;;;;;;;2.80;1.77;;;20.30;50.10;;;;;;5066244;28;45349;-67
2023/04/27 12:07:04;;;;;;;2.22;1.63;;;20.30;50.20;;;;;;5065729;28;45384;-68
2023/04/27 12:09:32;;;;;;;3.00;1.92;;;20.20;50.20;;;;;;5065939;28;45347;-67
2023/04/27 12:11:59;;;;;;;3.25;2.10;;;20.30;50.30;;;;;;5066170;28;45293;-68
2023/04/27 12:14:26;;;;;;;3.35;1.90;;;20.40;50.00;;;;;;5058118;28;45225;-70
2023/04/27 12:16:53;;;;;;;2.28;1.90;;;20.50;49.80;;;;;;5065763;28;46415;-69
2023/04/27 12:19:20;;;;;;;2.92;1.80;;;20.50;49.60;;;;;;5065801;28;45252;-67
2023/04/27 12:21:46;;;;;;;4.47;1.60;;;20.50;49.80;;;;;;5063387;28;45308;-67
2023/04/27 12:24:13;;;;;;;2.33;1.58;;;20.50;50.60;;;;;;5066127;28;45316;-67
2023/04/27 12:26:41;;;;;;;2.92;1.65;;;20.40;50.10;;;;;;5064301;28;46767;-68
2023/04/27 12:29:08;;;;;;;2.65;2.10;;;20.40;50.20;;;;;;5065729;28;45194;-67
2023/04/27 12:31:35;;;;;;;2.28;1.88;;;20.50;50.10;;;;;;5065733;28;45360;-69
2023/04/27 12:34:02;;;;;;;1.75;1.65;;;20.60;49.80;;;;;;5065853;28;45433;-67
2023/04/27 12:36:29;;;;;;;1.90;1.80;;;20.60;49.60;;;;;;5065643;28;46317;-68
2023/04/27 12:38:58;;;;;;;1.80;1.70;;;20.70;49.60;;;;;;5065847;28;45262;-68
2023/04/27 12:41:25;;;;;;;1.90;1.70;;;20.70;49.60;;;;;;5065813;28;45419;-67
2023/04/27 12:43:53;;;;;;;2.85;1.77;;;20.60;49.50;;;;;;5065789;28;45406;-68
2023/04/27 12:46:20;;;;;;;1.75;1.65;;;20.50;49.70;;;;;;5065325;28;45207;-68
2023/04/27 12:48:47;;;;;;;2.67;2.00;;;20.50;49.60;;;;;;5065347;28;45192;-68
2023/04/27 12:51:14;;;;;;;1.70;1.58;;;20.50;49.70;;;;;;5065507;28;45190;-68